sensor_id;sensor_type;location;lat;lon;timestamp;pressure;altitude;pressure_sealevel;temperature;humidity
62948;BME280;51940;52.126;-0.994;2023-05-20T00:02:09;101069.98;;;8.31;100.00
62948;BME280;51940;52.126;-0.994;2023-05-20T00:04:34;101071.26;;;8.29;100.00
62948;BME280;51940;52.126;-0.994;2023-05-20T00:07:00;101068.94;;;8.26;100.00
62948;BME280;51940;52.126;-0.994;2023-05-20T00:09:25;101068.96;;;8.20;100.00
62948;BME280;51940;52.126;-0.994;2023-05-20T00:11:51;101070.38;;;8.18;100.00
62948;BME280;51940;52.126;-0.994;2023-05-20T00:14:16;101070.20;;;8.18;100.00
62948;BME280;51940;52.126;-0.994;2023-05-20T00:16:41;101067.02;;;8.18;100.00
62948;BME280;51940;52.126;-0.994;2023-05-20T00:19:07;101067.54;;;8.19;100.00
62948;BME280;51940;52.126;-0.994;2023-05-20T00:21:33;101068.42;;;8.19;100.00
62948;BME280;51940;52.126;-0.994;2023-05-20T00:23:58;101069.50;;;8.21;100.00
62948;BME280;51940;52.126;-0.994;2023-05-20T00:26:24;101070.21;;;8.21;100.00
62948;BME280;51940;52.126;-0.994;2023-05-20T00:28:50;101069.31;;;8.18;100.00
62948;BME280;51940;52.126;-0.994;2023-05-20T00:31:16;101065.61;;;8.15;100.00
62948;BME280;51940;52.126;-0.994;2023-05-20T00:33:41;101066.86;;;8.13;100.00
62948;BME280;51940;52.126;-0.994;2023-05-20T00:36:07;101067.39;;;8.10;100.00
62948;BME280;51940;52.126;-0.994;2023-05-20T00:38:33;101063.34;;;8.05;100.00
62948;BME280;51940;52.126;-0.994;2023-05-20T00:40:58;101061.54;;;8.03;100.00
62948;BME280;51940;52.126;-0.994;2023-05-20T00:43:24;101061.92;;;8.02;100.00
62948;BME280;51940;52.126;-0.994;2023-05-20T00:45:54;101060.34;;;7.98;100.00
62948;BME280;51940;52.126;-0.994;2023-05-20T00:48:20;101057.67;;;7.92;100.00
62948;BME280;51940;52.126;-0.994;2023-05-20T00:50:47;101055.02;;;7.91;100.00
62948;BME280;51940;52.126;-0.994;2023-05-20T00:53:15;101046.67;;;7.90;100.00
62948;BME280;51940;52.126;-0.994;2023-05-20T00:55:44;101039.55;;;7.91;100.00
62948;BME280;51940;52.126;-0.994;2023-05-20T00:58:10;101030.17;;;7.87;100.00
62948;BME280;51940;52.126;-0.994;2023-05-20T01:00:36;101026.79;;;7.86;100.00
62948;BME280;51940;52.126;-0.994;2023-05-20T01:03:03;101020.58;;;7.87;100.00
62948;BME280;51940;52.126;-0.994;2023-05-20T01:05:28;101020.40;;;7.88;100.00
62948;BME280;51940;52.126;-0.994;2023-05-20T01:07:54;101018.80;;;7.87;100.00
62948;BME280;51940;52.126;-0.994;2023-05-20T01:10:22;101010.99;;;7.83;100.00
62948;BME280;51940;52.126;-0.994;2023-05-20T01:12:53;101007.10;;;7.82;100.00
62948;BME280;51940;52.126;-0.994;2023-05-20T01:15:23;101003.20;;;7.81;100.00
62948;BME280;51940;52.126;-0.994;2023-05-20T01:17:55;101004.27;;;7.78;100.00
62948;BME280;51940;52.126;-0.994;2023-05-20T01:20:23;101004.63;;;7.74;100.00
62948;BME280;51940;52.126;-0.994;2023-05-20T01:22:52;101001.09;;;7.72;100.00
62948;BME280;51940;52.126;-0.994;2023-05-20T01:25:18;101002.34;;;7.69;100.00
62948;BME280;51940;52.126;-0.994;2023-05-20T01:27:43;100995.06;;;7.66;100.00
62948;BME280;51940;52.126;-0.994;2023-05-20T01:30:09;100987.25;;;7.65;100.00
62948;BME280;51940;52.126;-0.994;2023-05-20T01:32:42;100981.39;;;7.66;100.00
62948;BME280;51940;52.126;-0.994;2023-05-20T01:35:12;100982.64;;;7.65;100.00
62948;BME280;51940;52.126;-0.994;2023-05-20T01:37:40;100981.22;;;7.64;100.00
62948;BME280;51940;52.126;-0.994;2023-05-20T01:40:10;100978.04;;;7.61;100.00
62948;BME280;51940;52.126;-0.994;2023-05-20T01:42:38;100977.69;;;7.58;100.00
62948;BME280;51940;52.126;-0.994;2023-05-20T01:45:06;100975.04;;;7.55;100.00
62948;BME280;51940;52.126;-0.994;2023-05-20T01:47:38;100970.60;;;7.54;100.00
62948;BME280;51940;52.126;-0.994;2023-05-20T01:50:04;100971.66;;;7.53;100.00
62948;BME280;51940;52.126;-0.994;2023-05-20T01:52:30;100967.77;;;7.49;100.00
62948;BME280;51940;52.126;-0.994;2023-05-20T01:55:01;100968.13;;;7.48;100.00
62948;BME280;51940;52.126;-0.994;2023-05-20T01:57:27;100965.10;;;7.48;100.00
62948;BME280;51940;52.126;-0.994;2023-05-20T01:59:53;100962.61;;;7.49;100.00
62948;BME280;51940;52.126;-0.994;2023-05-20T02:02:18;100961.02;;;7.50;100.00
62948;BME280;51940;52.126;-0.994;2023-05-20T02:04:45;100959.61;;;7.47;100.00
62948;BME280;51940;52.126;-0.994;2023-05-20T02:07:17;100963.17;;;7.44;100.00
62948;BME280;51940;52.126;-0.994;2023-05-20T02:09:43;100955.89;;;7.42;100.00
62948;BME280;51940;52.126;-0.994;2023-05-20T02:12:09;100952.69;;;7.41;100.00
62948;BME280;51940;52.126;-0.994;2023-05-20T02:14:43;100952.16;;;7.41;100.00
62948;BME280;51940;52.126;-0.994;2023-05-20T02:17:10;100947.73;;;7.39;100.00
62948;BME280;51940;52.126;-0.994;2023-05-20T02:19:35;100944.55;;;7.37;100.00
62948;BME280;51940;52.126;-0.994;2023-05-20T02:22:00;100937.99;;;7.36;100.00
62948;BME280;51940;52.126;-0.994;2023-05-20T02:24:26;100937.28;;;7.37;100.00
62948;BME280;51940;52.126;-0.994;2023-05-20T02:26:51;100936.57;;;7.36;100.00
62948;BME280;51940;52.126;-0.994;2023-05-20T02:29:18;100937.27;;;7.34;100.00
62948;BME280;51940;52.126;-0.994;2023-05-20T02:31:46;100934.09;;;7.30;100.00
62948;BME280;51940;52.126;-0.994;2023-05-20T02:34:14;100933.56;;;7.29;100.00
62948;BME280;51940;52.126;-0.994;2023-05-20T02:36:39;100934.27;;;7.29;100.00
62948;BME280;51940;52.126;-0.994;2023-05-20T02:39:05;100934.47;;;7.27;100.00
62948;BME280;51940;52.126;-0.994;2023-05-20T02:41:31;100936.77;;;7.23;100.00
62948;BME280;51940;52.126;-0.994;2023-05-20T02:43:57;100933.77;;;7.20;100.00
62948;BME280;51940;52.126;-0.994;2023-05-20T02:46:23;100936.79;;;7.18;100.00
62948;BME280;51940;52.126;-0.994;2023-05-20T02:48:48;100939.80;;;7.15;100.00
62948;BME280;51940;52.126;-0.994;2023-05-20T02:51:14;100942.46;;;7.12;100.00
62948;BME280;51940;52.126;-0.994;2023-05-20T02:53:39;100942.11;;;7.10;100.00
62948;BME280;51940;52.126;-0.994;2023-05-20T02:56:05;100944.58;;;7.07;100.00
62948;BME280;51940;52.126;-0.994;2023-05-20T02:58:33;100954.34;;;7.06;100.00
62948;BME280;51940;52.126;-0.994;2023-05-20T03:01:03;100957.90;;;7.05;100.00
62948;BME280;51940;52.126;-0.994;2023-05-20T03:03:28;100961.11;;;7.02;100.00
62948;BME280;51940;52.126;-0.994;2023-05-20T03:05:54;100963.58;;;7.03;100.00
62948;BME280;51940;52.126;-0.994;2023-05-20T03:08:21;100965.35;;;7.01;100.00
62948;BME280;51940;52.126;-0.994;2023-05-20T03:10:47;100963.39;;;6.97;100.00
62948;BME280;51940;52.126;-0.994;2023-05-20T03:13:12;100963.58;;;6.91;100.00
62948;BME280;51940;52.126;-0.994;2023-05-20T03:15:40;100961.44;;;6.88;100.00
62948;BME280;51940;52.126;-0.994;2023-05-20T03:18:05;100963.05;;;6.88;100.00
62948;BME280;51940;52.126;-0.994;2023-05-20T03:20:33;100963.41;;;6.87;100.00
62948;BME280;51940;52.126;-0.994;2023-05-20T03:23:05;100958.10;;;6.84;100.00
62948;BME280;51940;52.126;-0.994;2023-05-20T03:25:31;100959.87;;;6.84;100.00
62948;BME280;51940;52.126;-0.994;2023-05-20T03:27:56;100956.14;;;6.84;100.00
62948;BME280;51940;52.126;-0.994;2023-05-20T03:30:26;100957.73;;;6.83;100.00
62948;BME280;51940;52.126;-0.994;2023-05-20T03:32:56;100963.75;;;6.80;100.00
62948;BME280;51940;52.126;-0.994;2023-05-20T03:35:25;100965.70;;;6.76;100.00
62948;BME280;51940;52.126;-0.994;2023-05-20T03:37:51;100965.70;;;6.72;100.00
62948;BME280;51940;52.126;-0.994;2023-05-20T03:40:17;100969.06;;;6.68;100.00
62948;BME280;51940;52.126;-0.994;2023-05-20T03:42:43;100975.78;;;6.64;100.00
62948;BME280;51940;52.126;-0.994;2023-05-20T03:45:09;100966.39;;;6.65;100.00
62948;BME280;51940;52.126;-0.994;2023-05-20T03:47:35;100967.45;;;6.65;100.00
62948;BME280;51940;52.126;-0.994;2023-05-20T03:50:00;100965.69;;;6.62;100.00
62948;BME280;51940;52.126;-0.994;2023-05-20T03:52:26;100969.59;;;6.61;100.00
62948;BME280;51940;52.126;-0.994;2023-05-20T03:54:52;100969.95;;;6.61;100.00
62948;BME280;51940;52.126;-0.994;2023-05-20T03:57:18;100969.77;;;6.58;100.00
62948;BME280;51940;52.126;-0.994;2023-05-20T03:59:44;100971.17;;;6.57;100.00
62948;BME280;51940;52.126;-0.994;2023-05-20T04:02:09;100966.93;;;6.59;100.00
62948;BME280;51940;52.126;-0.994;2023-05-20T04:04:35;100962.86;;;6.58;100.00
62948;BME280;51940;52.126;-0.994;2023-05-20T04:07:00;100961.79;;;6.60;100.00
62948;BME280;51940;52.126;-0.994;2023-05-20T04:09:27;100959.30;;;6.63;100.00
62948;BME280;51940;52.126;-0.994;2023-05-20T04:11:53;100963.56;;;6.64;100.00
62948;BME280;51940;52.126;-0.994;2023-05-20T04:14:18;100960.72;;;6.66;100.00
62948;BME280;51940;52.126;-0.994;2023-05-20T04:16:44;100962.86;;;6.68;100.00
62948;BME280;51940;52.126;-0.994;2023-05-20T04:19:10;100964.81;;;6.70;100.00
62948;BME280;51940;52.126;-0.994;2023-05-20T04:21:35;100960.73;;;6.74;100.00
62948;BME280;51940;52.126;-0.994;2023-05-20T04:24:01;100962.35;;;6.76;100.00
62948;BME280;51940;52.126;-0.994;2023-05-20T04:26:27;100961.64;;;6.76;100.00
62948;BME280;51940;52.126;-0.994;2023-05-20T04:28:53;100956.48;;;6.82;100.00
62948;BME280;51940;52.126;-0.994;2023-05-20T04:31:19;100959.34;;;6.84;100.00
62948;BME280;51940;52.126;-0.994;2023-05-20T04:33:51;100958.63;;;6.84;100.00
62948;BME280;51940;52.126;-0.994;2023-05-20T04:36:17;100956.67;;;6.84;100.00
62948;BME280;51940;52.126;-0.994;2023-05-20T04:38:43;100951.35;;;6.85;100.00
62948;BME280;51940;52.126;-0.994;2023-05-20T04:41:09;100949.04;;;6.90;100.00
62948;BME280;51940;52.126;-0.994;2023-05-20T04:43:35;100951.00;;;6.93;100.00
62948;BME280;51940;52.126;-0.994;2023-05-20T04:46:03;100952.77;;;6.93;100.00
62948;BME280;51940;52.126;-0.994;2023-05-20T04:48:31;100951.87;;;6.98;100.00
62948;BME280;51940;52.126;-0.994;2023-05-20T04:50:57;100953.64;;;7.02;100.00
62948;BME280;51940;52.126;-0.994;2023-05-20T04:53:22;100949.39;;;7.04;100.00
62948;BME280;51940;52.126;-0.994;2023-05-20T04:55:53;100940.67;;;7.08;100.00
62948;BME280;51940;52.126;-0.994;2023-05-20T04:58:19;100942.66;;;7.10;100.00
62948;BME280;51940;52.126;-0.994;2023-05-20T05:00:49;100941.21;;;7.14;100.00
62948;BME280;51940;52.126;-0.994;2023-05-20T05:03:16;100939.78;;;7.17;100.00
62948;BME280;51940;52.126;-0.994;2023-05-20T05:05:42;100936.60;;;7.22;100.00
62948;BME280;51940;52.126;-0.994;2023-05-20T05:08:08;100931.80;;;7.26;100.00
62948;BME280;51940;52.126;-0.994;2023-05-20T05:10:36;100929.66;;;7.30;100.00
62948;BME280;51940;52.126;-0.994;2023-05-20T05:13:02;100932.30;;;7.36;100.00
62948;BME280;51940;52.126;-0.994;2023-05-20T05:15:28;100929.81;;;7.39;100.00
62948;BME280;51940;52.126;-0.994;2023-05-20T05:17:53;100926.26;;;7.43;100.00
62948;BME280;51940;52.126;-0.994;2023-05-20T05:20:19;100925.02;;;7.45;100.00
62948;BME280;51940;52.126;-0.994;2023-05-20T05:22:45;100926.77;;;7.48;100.00
62948;BME280;51940;52.126;-0.994;2023-05-20T05:25:11;100925.70;;;7.50;100.00
62948;BME280;51940;52.126;-0.994;2023-05-20T05:27:36;100918.06;;;7.54;100.00
62948;BME280;51940;52.126;-0.994;2023-05-20T05:30:04;100913.60;;;7.59;100.00
62948;BME280;51940;52.126;-0.994;2023-05-20T05:32:30;100915.89;;;7.65;100.00
62948;BME280;51940;52.126;-0.994;2023-05-20T05:34:55;100916.23;;;7.69;100.00
62948;BME280;51940;52.126;-0.994;2023-05-20T05:37:21;100917.64;;;7.73;100.00
62948;BME280;51940;52.126;-0.994;2023-05-20T05:39:47;100920.27;;;7.77;100.00
62948;BME280;51940;52.126;-0.994;2023-05-20T05:42:12;100923.98;;;7.81;100.00
62948;BME280;51940;52.126;-0.994;2023-05-20T05:44:38;100927.51;;;7.88;100.00
62948;BME280;51940;52.126;-0.994;2023-05-20T05:47:04;100923.91;;;7.97;100.00
62948;BME280;51940;52.126;-0.994;2023-05-20T05:49:31;100920.69;;;8.05;100.00
62948;BME280;51940;52.126;-0.994;2023-05-20T05:51:58;100913.88;;;8.12;100.00
62948;BME280;51940;52.126;-0.994;2023-05-20T05:54:23;100909.71;;;8.27;100.00
62948;BME280;51940;52.126;-0.994;2023-05-20T05:56:53;100912.16;;;8.37;100.00
62948;BME280;51940;52.126;-0.994;2023-05-20T05:59:18;100911.41;;;8.43;100.00
62948;BME280;51940;52.126;-0.994;2023-05-20T06:01:44;100910.98;;;8.53;100.00
62948;BME280;51940;52.126;-0.994;2023-05-20T06:04:10;100910.66;;;8.72;100.00
62948;BME280;51940;52.126;-0.994;2023-05-20T06:06:35;100908.10;;;9.00;100.00
62948;BME280;51940;52.126;-0.994;2023-05-20T06:09:01;100917.77;;;9.13;100.00
62948;BME280;51940;52.126;-0.994;2023-05-20T06:11:26;100917.50;;;9.38;100.00
62948;BME280;51940;52.126;-0.994;2023-05-20T06:13:52;100914.75;;;9.89;100.00
62948;BME280;51940;52.126;-0.994;2023-05-20T06:16:19;100919.98;;;10.39;100.00
62948;BME280;51940;52.126;-0.994;2023-05-20T06:18:45;100919.23;;;11.15;100.00
62948;BME280;51940;52.126;-0.994;2023-05-20T06:21:11;100948.85;;;11.48;100.00
62948;BME280;51940;52.126;-0.994;2023-05-20T06:23:37;100979.73;;;11.77;100.00
62948;BME280;51940;52.126;-0.994;2023-05-20T06:26:02;101009.94;;;11.87;100.00
62948;BME280;51940;52.126;-0.994;2023-05-20T06:28:29;101015.00;;;11.93;100.00
62948;BME280;51940;52.126;-0.994;2023-05-20T06:30:55;101017.81;;;12.05;100.00
62948;BME280;51940;52.126;-0.994;2023-05-20T06:33:23;101027.88;;;12.20;100.00
62948;BME280;51940;52.126;-0.994;2023-05-20T06:35:53;101024.48;;;12.84;100.00
62948;BME280;51940;52.126;-0.994;2023-05-20T06:38:19;101052.58;;;13.53;100.00
62948;BME280;51940;52.126;-0.994;2023-05-20T06:40:45;101070.73;;;14.10;100.00
62948;BME280;51940;52.126;-0.994;2023-05-20T06:43:11;101109.50;;;15.49;100.00
62948;BME280;51940;52.126;-0.994;2023-05-20T06:45:36;101108.02;;;15.94;100.00
62948;BME280;51940;52.126;-0.994;2023-05-20T06:48:02;101135.13;;;17.17;100.00
62948;BME280;51940;52.126;-0.994;2023-05-20T06:50:27;101185.63;;;18.40;100.00
62948;BME280;51940;52.126;-0.994;2023-05-20T06:52:53;101207.99;;;18.16;100.00
62948;BME280;51940;52.126;-0.994;2023-05-20T06:55:19;101237.92;;;19.08;100.00
62948;BME280;51940;52.126;-0.994;2023-05-20T06:57:44;101293.77;;;20.12;100.00
62948;BME280;51940;52.126;-0.994;2023-05-20T07:00:10;101353.70;;;21.00;100.00
62948;BME280;51940;52.126;-0.994;2023-05-20T07:02:46;101424.48;;;20.28;100.00
62948;BME280;51940;52.126;-0.994;2023-05-20T07:05:11;101434.98;;;19.66;100.00
62948;BME280;51940;52.126;-0.994;2023-05-20T07:07:37;101447.61;;;19.43;100.00
62948;BME280;51940;52.126;-0.994;2023-05-20T07:10:03;101429.75;;;18.74;100.00
62948;BME280;51940;52.126;-0.994;2023-05-20T07:12:31;101426.15;;;18.42;100.00
62948;BME280;51940;52.126;-0.994;2023-05-20T07:14:56;101423.36;;;18.26;100.00
62948;BME280;51940;52.126;-0.994;2023-05-20T07:17:23;101424.30;;;18.11;100.00
62948;BME280;51940;52.126;-0.994;2023-05-20T07:19:48;101421.21;;;17.88;100.00
62948;BME280;51940;52.126;-0.994;2023-05-20T07:22:13;101411.41;;;17.70;100.00
62948;BME280;51940;52.126;-0.994;2023-05-20T07:24:39;101405.90;;;17.73;100.00
62948;BME280;51940;52.126;-0.994;2023-05-20T07:27:04;101409.08;;;17.65;100.00
62948;BME280;51940;52.126;-0.994;2023-05-20T07:29:30;101413.58;;;17.70;100.00
62948;BME280;51940;52.126;-0.994;2023-05-20T07:31:55;101421.07;;;17.78;100.00
62948;BME280;51940;52.126;-0.994;2023-05-20T07:34:20;101425.05;;;17.57;100.00
62948;BME280;51940;52.126;-0.994;2023-05-20T07:36:47;101431.05;;;17.31;100.00
62948;BME280;51940;52.126;-0.994;2023-05-20T07:39:13;101430.07;;;16.96;100.00
62948;BME280;51940;52.126;-0.994;2023-05-20T07:41:39;101421.33;;;16.73;100.00
62948;BME280;51940;52.126;-0.994;2023-05-20T07:44:07;101419.48;;;16.56;100.00
62948;BME280;51940;52.126;-0.994;2023-05-20T07:46:35;101422.64;;;16.42;100.00
62948;BME280;51940;52.126;-0.994;2023-05-20T07:49:03;101416.51;;;16.25;100.00
62948;BME280;51940;52.126;-0.994;2023-05-20T07:51:29;101415.58;;;16.09;100.00
62948;BME280;51940;52.126;-0.994;2023-05-20T07:53:58;101407.85;;;15.85;100.00
62948;BME280;51940;52.126;-0.994;2023-05-20T07:56:24;101407.13;;;15.66;100.00
62948;BME280;51940;52.126;-0.994;2023-05-20T07:58:55;101394.67;;;15.48;100.00
62948;BME280;51940;52.126;-0.994;2023-05-20T08:01:20;101393.92;;;15.43;100.00
62948;BME280;51940;52.126;-0.994;2023-05-20T08:03:46;101379.60;;;15.41;100.00
62948;BME280;51940;52.126;-0.994;2023-05-20T08:06:11;101385.27;;;15.32;100.00
62948;BME280;51940;52.126;-0.994;2023-05-20T08:08:37;101371.00;;;15.27;100.00
62948;BME280;51940;52.126;-0.994;2023-05-20T08:11:05;101363.70;;;15.25;100.00
62948;BME280;51940;52.126;-0.994;2023-05-20T08:13:31;101361.46;;;15.34;100.00
62948;BME280;51940;52.126;-0.994;2023-05-20T08:15:57;101360.63;;;15.44;100.00
62948;BME280;51940;52.126;-0.994;2023-05-20T08:18:22;101357.02;;;15.44;100.00
62948;BME280;51940;52.126;-0.994;2023-05-20T08:20:49;101352.41;;;15.55;100.00
62948;BME280;51940;52.126;-0.994;2023-05-20T08:23:15;101350.92;;;15.70;100.00
62948;BME280;51940;52.126;-0.994;2023-05-20T08:25:41;101358.45;;;15.64;100.00
62948;BME280;51940;52.126;-0.994;2023-05-20T08:28:07;101346.11;;;15.62;100.00
62948;BME280;51940;52.126;-0.994;2023-05-20T08:30:32;101358.61;;;15.58;100.00
62948;BME280;51940;52.126;-0.994;2023-05-20T08:32:59;101348.40;;;15.44;100.00
62948;BME280;51940;52.126;-0.994;2023-05-20T08:35:24;101350.45;;;15.42;100.00
62948;BME280;51940;52.126;-0.994;2023-05-20T08:37:51;101349.84;;;15.38;100.00
62948;BME280;51940;52.126;-0.994;2023-05-20T08:40:20;101356.73;;;15.43;100.00
62948;BME280;51940;52.126;-0.994;2023-05-20T08:42:50;101366.02;;;15.38;100.00
62948;BME280;51940;52.126;-0.994;2023-05-20T08:45:21;101367.02;;;15.28;100.00
62948;BME280;51940;52.126;-0.994;2023-05-20T08:47:53;101351.13;;;15.31;100.00
62948;BME280;51940;52.126;-0.994;2023-05-20T08:50:19;101350.10;;;15.42;100.00
62948;BME280;51940;52.126;-0.994;2023-05-20T08:52:46;101341.55;;;15.39;100.00
62948;BME280;51940;52.126;-0.994;2023-05-20T08:55:37;101339.51;;;15.35;100.00
62948;BME280;51940;52.126;-0.994;2023-05-20T08:58:11;101330.60;;;15.45;100.00
62948;BME280;51940;52.126;-0.994;2023-05-20T09:00:36;101336.64;;;15.59;100.00
62948;BME280;51940;52.126;-0.994;2023-05-20T09:03:03;101354.47;;;15.66;100.00
62948;BME280;51940;52.126;-0.994;2023-05-20T09:05:29;101350.31;;;15.66;100.00
62948;BME280;51940;52.126;-0.994;2023-05-20T09:08:15;101334.09;;;15.73;100.00
62948;BME280;51940;52.126;-0.994;2023-05-20T09:10:42;101334.59;;;15.92;100.00
62948;BME280;51940;52.126;-0.994;2023-05-20T09:13:09;101343.97;;;16.03;100.00
62948;BME280;51940;52.126;-0.994;2023-05-20T09:15:35;101352.89;;;16.05;100.00
62948;BME280;51940;52.126;-0.994;2023-05-20T09:18:03;101355.26;;;16.10;100.00
62948;BME280;51940;52.126;-0.994;2023-05-20T09:20:32;101360.73;;;16.19;100.00
62948;BME280;51940;52.126;-0.994;2023-05-20T09:22:59;101366.70;;;16.18;100.00
62948;BME280;51940;52.126;-0.994;2023-05-20T09:25:25;101366.52;;;16.18;100.00
62948;BME280;51940;52.126;-0.994;2023-05-20T09:27:51;101378.55;;;16.19;100.00
62948;BME280;51940;52.126;-0.994;2023-05-20T09:30:20;101377.35;;;16.23;100.00
62948;BME280;51940;52.126;-0.994;2023-05-20T09:32:56;101393.95;;;16.22;100.00
62948;BME280;51940;52.126;-0.994;2023-05-20T09:35:23;101374.89;;;16.21;100.00
62948;BME280;51940;52.126;-0.994;2023-05-20T09:37:52;101381.42;;;16.30;100.00
62948;BME280;51940;52.126;-0.994;2023-05-20T09:40:27;101399.42;;;16.30;100.00
62948;BME280;51940;52.126;-0.994;2023-05-20T09:43:01;101414.83;;;16.21;100.00
62948;BME280;51940;52.126;-0.994;2023-05-20T09:45:27;101412.73;;;16.19;100.00
62948;BME280;51940;52.126;-0.994;2023-05-20T09:47:53;101409.98;;;16.21;100.00
62948;BME280;51940;52.126;-0.994;2023-05-20T09:50:22;101413.11;;;16.30;100.00
62948;BME280;51940;52.126;-0.994;2023-05-20T09:52:50;101439.31;;;16.33;100.00
62948;BME280;51940;52.126;-0.994;2023-05-20T09:55:18;101446.59;;;16.30;100.00
62948;BME280;51940;52.126;-0.994;2023-05-20T09:57:44;101441.81;;;16.28;100.00
62948;BME280;51940;52.126;-0.994;2023-05-20T10:00:11;101446.40;;;16.37;100.00
62948;BME280;51940;52.126;-0.994;2023-05-20T10:02:44;101455.95;;;16.37;100.00
62948;BME280;51940;52.126;-0.994;2023-05-20T10:05:23;101456.13;;;16.31;100.00
62948;BME280;51940;52.126;-0.994;2023-05-20T10:17:25;101450.98;;;16.86;100.00
62948;BME280;51940;52.126;-0.994;2023-05-20T10:19:57;101452.52;;;16.99;100.00
62948;BME280;51940;52.126;-0.994;2023-05-20T10:22:27;101453.86;;;17.13;100.00
62948;BME280;51940;52.126;-0.994;2023-05-20T10:25:03;101463.00;;;17.09;100.00
62948;BME280;51940;52.126;-0.994;2023-05-20T10:27:44;101452.26;;;17.07;100.00
62948;BME280;51940;52.126;-0.994;2023-05-20T10:30:22;101442.27;;;17.09;100.00
62948;BME280;51940;52.126;-0.994;2023-05-20T10:32:51;101444.55;;;17.11;100.00
62948;BME280;51940;52.126;-0.994;2023-05-20T10:35:22;101456.37;;;17.13;100.00
62948;BME280;51940;52.126;-0.994;2023-05-20T10:37:51;101440.02;;;17.17;100.00
62948;BME280;51940;52.126;-0.994;2023-05-20T10:40:19;101433.10;;;17.24;100.00
62948;BME280;51940;52.126;-0.994;2023-05-20T10:42:44;101432.41;;;17.28;100.00
62948;BME280;51940;52.126;-0.994;2023-05-20T10:45:11;101430.52;;;17.36;100.00
62948;BME280;51940;52.126;-0.994;2023-05-20T10:47:52;101440.53;;;17.43;100.00
62948;BME280;51940;52.126;-0.994;2023-05-20T10:50:26;101433.98;;;17.45;100.00
62948;BME280;51940;52.126;-0.994;2023-05-20T10:52:52;101423.21;;;17.54;100.00
62948;BME280;51940;52.126;-0.994;2023-05-20T10:55:22;101413.12;;;17.63;100.00
62948;BME280;51940;52.126;-0.994;2023-05-20T10:57:48;101427.34;;;17.74;100.00
62948;BME280;51940;52.126;-0.994;2023-05-20T11:00:14;101436.80;;;17.67;100.00
62948;BME280;51940;52.126;-0.994;2023-05-20T11:02:40;101442.08;;;17.60;100.00
62948;BME280;51940;52.126;-0.994;2023-05-20T11:05:10;101453.11;;;17.39;100.00
62948;BME280;51940;52.126;-0.994;2023-05-20T11:07:36;101468.66;;;17.17;100.00
62948;BME280;51940;52.126;-0.994;2023-05-20T11:10:07;101452.71;;;17.14;100.00
62948;BME280;51940;52.126;-0.994;2023-05-20T11:12:33;101450.27;;;17.28;100.00
62948;BME280;51940;52.126;-0.994;2023-05-20T11:15:00;101469.39;;;17.28;100.00
62948;BME280;51940;52.126;-0.994;2023-05-20T11:17:25;101478.27;;;17.21;100.00
62948;BME280;51940;52.126;-0.994;2023-05-20T11:19:50;101458.77;;;17.22;100.00
62948;BME280;51940;52.126;-0.994;2023-05-20T11:22:16;101448.13;;;17.32;100.00
62948;BME280;51940;52.126;-0.994;2023-05-20T11:24:41;101446.35;;;17.41;100.00
62948;BME280;51940;52.126;-0.994;2023-05-20T11:27:07;101432.58;;;17.54;100.00
62948;BME280;51940;52.126;-0.994;2023-05-20T11:29:32;101453.41;;;17.71;100.00
62948;BME280;51940;52.126;-0.994;2023-05-20T11:31:59;101455.92;;;17.82;100.00
62948;BME280;51940;52.126;-0.994;2023-05-20T11:34:32;101436.73;;;17.83;100.00
62948;BME280;51940;52.126;-0.994;2023-05-20T11:36:58;101435.61;;;17.90;100.00
62948;BME280;51940;52.126;-0.994;2023-05-20T11:39:24;101438.64;;;17.95;100.00
62948;BME280;51940;52.126;-0.994;2023-05-20T11:41:54;101437.99;;;17.93;100.00
62948;BME280;51940;52.126;-0.994;2023-05-20T11:44:19;101440.80;;;17.90;100.00
62948;BME280;51940;52.126;-0.994;2023-05-20T11:46:46;101447.84;;;17.90;100.00
62948;BME280;51940;52.126;-0.994;2023-05-20T11:49:13;101447.52;;;17.89;100.00
62948;BME280;51940;52.126;-0.994;2023-05-20T11:51:42;101445.19;;;17.84;100.00
62948;BME280;51940;52.126;-0.994;2023-05-20T11:54:10;101442.05;;;17.81;100.00
62948;BME280;51940;52.126;-0.994;2023-05-20T11:56:37;101454.16;;;17.86;100.00
62948;BME280;51940;52.126;-0.994;2023-05-20T11:59:07;101441.83;;;17.82;100.00
62948;BME280;51940;52.126;-0.994;2023-05-20T12:01:35;101448.54;;;17.77;100.00
62948;BME280;51940;52.126;-0.994;2023-05-20T12:04:10;101442.05;;;17.66;100.00
62948;BME280;51940;52.126;-0.994;2023-05-20T12:06:41;101448.03;;;17.65;100.00
62948;BME280;51940;52.126;-0.994;2023-05-20T12:09:09;101443.30;;;17.66;100.00
62948;BME280;51940;52.126;-0.994;2023-05-20T12:11:36;101435.59;;;17.70;100.00
62948;BME280;51940;52.126;-0.994;2023-05-20T12:14:03;101441.87;;;17.82;100.00
62948;BME280;51940;52.126;-0.994;2023-05-20T12:16:31;101437.88;;;17.87;100.00
62948;BME280;51940;52.126;-0.994;2023-05-20T12:19:03;101424.26;;;17.94;100.00
62948;BME280;51940;52.126;-0.994;2023-05-20T12:21:29;101434.23;;;18.01;100.00
62948;BME280;51940;52.126;-0.994;2023-05-20T12:23:55;101428.80;;;18.07;100.00
62948;BME280;51940;52.126;-0.994;2023-05-20T12:26:23;101424.23;;;18.13;100.00
62948;BME280;51940;52.126;-0.994;2023-05-20T12:28:48;101417.31;;;18.19;100.00
62948;BME280;51940;52.126;-0.994;2023-05-20T12:31:14;101427.63;;;18.27;100.00
62948;BME280;51940;52.126;-0.994;2023-05-20T12:33:39;101423.92;;;18.30;100.00
62948;BME280;51940;52.126;-0.994;2023-05-20T12:36:04;101419.81;;;18.24;100.00
62948;BME280;51940;52.126;-0.994;2023-05-20T12:38:31;101415.41;;;18.26;100.00
62948;BME280;51940;52.126;-0.994;2023-05-20T12:40:58;101423.09;;;18.33;100.00
62948;BME280;51940;52.126;-0.994;2023-05-20T12:43:24;101421.98;;;18.33;100.00
62948;BME280;51940;52.126;-0.994;2023-05-20T12:45:50;101418.00;;;18.33;100.00